עמוד ראשי
METAR-TAF:

METAR-TAF

שדות תעופה :

סנטו דומינגו, הרפובליקה הדומיניקאנית

קו רוחב: 18-34-32N, קו אורך: 069-58-53W, גובה: 15מטר

תצפית מזג אוויר נוכחית

הדו"ח נערך לפני 28דקות, בשעה 00:00 UTC
רוח רגועה
טמפרטורת 29 צלסיוס
לחות 84%
לחץ 1015 hPa
ראות 10 קילומטר או יותר
מעט עננים בגובה 2000רגל

METAR: MDJB 130000Z 00000KT 9999 FEW020 29/26 Q1015

זמן: 20:28 (00:28 UTC)

תחזית

הדו"ח נערך לפני 2 שעות ו 28דקות, בשעה 22:00 UTC
תחזית בתוקף מ 13 ב 00 UTC עד 14 ב 00 UTC
רוח קשר מכיוון צפון
ראות 10 קילומטר או יותר
מעט עננים בגובה 2000רגל
יעשה מ
13 ב 16 UTC עד 13 ב 18 UTC
רוח 10קשר מכיוון דרום

TAF: MDJB 122200Z 1300/1400 00000KT 9999 FEW020 BECMG 1316/1318 18010KT

תצפיות ותחזיות מזג אוויר לגבי יותר מ- 4,000 שדות תעופה ברחבי העולם. דוחות METAR ו- TAF.

התחנות הזמינות מסומנות בנקודות צהובות ואדומות על גבי המפה.

העבר את העכבר לנקודה הצבעונית על מנת לראות את שם התחנה.

לאחר מכן, לחץ כדי לראות את תוכן ואת תחזיות מזג האוויר.

כדי לשנות את המפה: לחץ על הכפתורים הירוקים עם הפלוס השחור כדי להתקרב; על הכפתור הירוק עם המקף כדי להתרחק; או בחיצים הירוקים למפות סמוכות.


METAR-TAF: